Time;durP1;ratioP1;P1;durP2;ratioP2;P2;SDS_P1;SDS_P2;PMS_P1;PMS_P2;Temp;Humidity;BMP_temperature;BMP_pressure;BME280_temperature;BME280_humidity;BME280_pressure;Samples;Min_cycle;Max_cycle;Signal;HPM_P1;HPM_P2
2021/06/14 00:00:13;;;;;;;4.53;3.67;;;;;;;18.44;63.15;97049.03;4984231;28;20468;-69
2021/06/14 00:02:40;;;;;;;8.90;4.03;;;;;;;18.39;63.14;97047.09;4986346;28;20452;-68
2021/06/14 00:05:08;;;;;;;4.67;3.40;;;;;;;18.39;63.62;97043.63;4985914;28;20490;-68
2021/06/14 00:07:33;;;;;;;3.70;3.40;;;;;;;18.35;63.20;97045.22;4988255;28;20437;-69
2021/06/14 00:09:58;;;;;;;3.80;3.50;;;;;;;18.32;62.93;97035.09;4986677;28;20452;-70
2021/06/14 00:12:24;;;;;;;4.00;3.70;;;;;;;18.38;62.10;97040.19;4983794;28;20188;-69
2021/06/14 00:14:50;;;;;;;5.10;3.20;;;;;;;18.33;61.73;97044.69;4990986;28;20212;-68
2021/06/14 00:17:16;;;;;;;4.33;4.03;;;;;;;18.36;60.94;97038.84;4987024;28;20267;-68
2021/06/14 00:19:42;;;;;;;5.03;4.37;;;;;;;18.34;60.73;97040.94;4971102;28;20460;-68
2021/06/14 00:22:08;;;;;;;4.47;4.03;;;;;;;18.37;60.65;97043.13;4984298;28;20470;-69
2021/06/14 00:24:33;;;;;;;4.00;3.63;;;;;;;18.33;61.24;97045.47;4983960;28;20468;-69
2021/06/14 00:26:58;;;;;;;4.80;4.30;;;;;;;18.29;62.03;97041.75;4985467;28;20178;-69
2021/06/14 00:29:24;;;;;;;3.80;3.50;;;;;;;18.26;62.49;97036.13;4985209;28;20185;-70
2021/06/14 00:31:49;;;;;;;4.50;4.10;;;;;;;18.24;62.45;97038.25;4987508;28;20181;-69
2021/06/14 00:34:14;;;;;;;5.23;3.90;;;;;;;18.19;62.95;97040.88;4986610;28;20236;-68
2021/06/14 00:36:40;;;;;;;4.03;3.60;;;;;;;18.15;62.46;97037.91;4988391;28;20177;-69
2021/06/14 00:39:06;;;;;;;5.37;4.00;;;;;;;18.17;62.33;97040.34;4987621;28;20247;-69
2021/06/14 00:41:31;;;;;;;5.93;4.40;;;;;;;18.16;62.25;97039.53;4986762;28;20184;-69
2021/06/14 00:43:56;;;;;;;5.00;4.37;;;;;;;18.12;61.68;97033.09;4983373;28;20452;-69
2021/06/14 00:46:22;;;;;;;4.03;3.70;;;;;;;18.11;61.69;97031.53;4983378;28;20192;-68
2021/06/14 00:48:47;;;;;;;4.03;3.60;;;;;;;18.04;62.19;97032.78;4982752;28;20189;-69
2021/06/14 00:51:13;;;;;;;3.73;3.43;;;;;;;17.96;62.48;97020.78;4986679;28;20260;-69
2021/06/14 00:53:41;;;;;;;6.50;3.93;;;;;;;17.94;62.68;97030.84;4983554;28;20331;-70
2021/06/14 00:56:10;;;;;;;6.00;3.57;;;;;;;17.96;62.89;97014.63;4985311;28;20215;-70
2021/06/14 00:58:37;;;;;;;6.07;3.63;;;;;;;17.89;63.02;97017.53;4969676;28;20436;-69
2021/06/14 01:01:04;;;;;;;3.27;2.97;;;;;;;17.88;62.72;97015.13;4984891;28;20526;-69
2021/06/14 01:03:30;;;;;;;3.27;2.83;;;;;;;17.82;62.92;97010.81;4985301;28;20460;-70
2021/06/14 01:06:06;;;;;;;3.77;3.47;;;;;;;17.81;62.73;97025.19;4982254;28;20444;-69
2021/06/14 01:08:35;;;;;;;3.53;3.27;;;;;;;17.75;62.97;97013.72;4985772;28;20651;-69
2021/06/14 01:11:09;;;;;;;6.73;4.30;;;;;;;17.78;63.69;97013.19;4982968;28;20545;-70
2021/06/14 01:14:12;;;;;;;5.10;3.90;;;;;;;17.77;63.79;97016.91;4985877;28;20558;-69
2021/06/14 01:17:08;;;;;;;5.17;3.57;;;;;;;17.65;63.58;97021.59;4981471;28;21021;-69
2021/06/14 01:20:04;;;;;;;3.90;3.23;;;;;;;17.55;64.22;97018.06;4950457;28;20523;-69
2021/06/14 01:22:55;;;;;;;4.27;3.87;;;;;;;17.39;64.62;97015.22;4982242;28;20429;-69
2021/06/14 01:25:32;;;;;;;4.90;3.67;;;;;;;17.46;64.69;97002.53;4986148;28;20428;-68
2021/06/14 01:27:59;;;;;;;3.80;3.40;;;;;;;17.48;64.63;97004.97;4985294;28;20432;-69
2021/06/14 01:30:29;;;;;;;3.93;3.67;;;;;;;17.48;64.11;97000.44;4986608;28;20440;-70
2021/06/14 01:32:55;;;;;;;3.40;3.20;;;;;;;17.46;63.91;97004.41;4983196;28;20438;-69
2021/06/14 01:35:39;;;;;;;4.63;3.57;;;;;;;17.43;64.19;97000.38;4983351;28;20437;-69
2021/06/14 01:38:06;;;;;;;3.70;3.40;;;;;;;17.37;64.34;96996.06;4995327;28;20440;-68
2021/06/14 01:40:33;;;;;;;4.63;3.70;;;;;;;17.34;64.08;97001.09;4991858;28;20473;-69
2021/06/14 01:43:03;;;;;;;3.60;3.30;;;;;;;17.35;64.07;96997.38;4986160;28;20507;-69
2021/06/14 01:45:30;;;;;;;3.43;3.13;;;;;;;17.25;64.53;96982.16;4985431;28;20440;-68
2021/06/14 01:47:57;;;;;;;4.23;3.17;;;;;;;17.23;64.65;96989.56;4985432;28;20579;-69
2021/06/14 01:50:25;;;;;;;3.80;3.50;;;;;;;17.22;65.07;96985.31;4990652;28;20517;-69
2021/06/14 01:52:51;;;;;;;5.80;3.37;;;;;;;17.20;64.71;96982.13;4989919;28;20804;-69
2021/06/14 01:55:18;;;;;;;3.50;3.30;;;;;;;17.14;64.55;96987.63;4990165;28;20444;-70
2021/06/14 01:57:44;;;;;;;5.00;3.80;;;;;;;17.12;64.54;96987.09;4975601;28;20186;-70
2021/06/14 02:00:10;;;;;;;4.23;3.30;;;;;;;17.12;64.50;96976.47;4985994;28;20573;-69
2021/06/14 02:02:37;;;;;;;3.50;3.30;;;;;;;17.02;65.01;96971.03;4986713;28;20908;-68
2021/06/14 02:05:04;;;;;;;4.03;3.73;;;;;;;17.04;64.63;96971.59;4989444;28;20432;-68
2021/06/14 02:07:31;;;;;;;3.70;3.40;;;;;;;17.02;64.61;96971.84;4984764;28;20923;-69
2021/06/14 02:09:56;;;;;;;4.20;3.60;;;;;;;16.98;64.73;96977.91;4988751;28;20432;-70
2021/06/14 02:12:23;;;;;;;3.63;3.43;;;;;;;16.93;64.96;96967.22;4988350;28;20443;-69
2021/06/14 02:14:50;;;;;;;4.03;3.40;;;;;;;16.87;64.96;96966.38;4988465;28;20202;-69
2021/06/14 02:17:18;;;;;;;3.80;3.50;;;;;;;16.83;64.94;96973.22;4990038;28;20456;-67
2021/06/14 02:19:46;;;;;;;4.70;3.47;;;;;;;16.77;64.88;96971.59;4986448;28;20492;-69
2021/06/14 02:22:13;;;;;;;4.23;3.90;;;;;;;16.74;65.25;96976.59;4984366;28;20450;-68
2021/06/14 02:24:38;;;;;;;4.47;3.87;;;;;;;16.74;64.92;96979.25;4988947;28;20460;-70
2021/06/14 02:27:06;;;;;;;4.47;3.73;;;;;;;16.67;65.44;96978.66;4987184;28;20849;-69
2021/06/14 02:29:32;;;;;;;3.93;3.63;;;;;;;16.68;65.67;96969.63;4986262;28;20202;-70
2021/06/14 02:31:57;;;;;;;5.30;3.60;;;;;;;16.66;65.91;96974.38;4984874;28;20530;-69
2021/06/14 02:34:23;;;;;;;4.30;3.90;;;;;;;16.72;65.22;96978.69;4985242;28;20264;-69
2021/06/14 02:36:50;;;;;;;5.30;4.13;;;;;;;16.65;65.18;96975.44;4989224;28;20188;-68
2021/06/14 02:39:20;;;;;;;6.03;3.77;;;;;;;16.57;65.50;96981.16;4989085;28;20252;-70
2021/06/14 02:41:46;;;;;;;4.40;3.63;;;;;;;16.40;66.79;96973.25;4985093;28;20943;-69
2021/06/14 02:44:12;;;;;;;4.10;3.80;;;;;;;16.47;66.25;96976.53;4988995;28;20457;-69
2021/06/14 02:46:43;;;;;;;4.03;3.73;;;;;;;16.52;66.25;96975.81;4988286;28;20197;-69
2021/06/14 02:49:11;;;;;;;5.70;3.80;;;;;;;16.55;66.13;96973.47;4984500;28;20197;-68
2021/06/14 02:51:38;;;;;;;4.20;3.90;;;;;;;16.49;66.47;96971.78;4983336;28;20943;-69
2021/06/14 02:54:08;;;;;;;3.60;3.30;;;;;;;16.41;66.91;96973.00;4985528;28;20899;-68
2021/06/14 02:56:39;;;;;;;5.53;4.03;;;;;;;16.32;67.69;96971.03;4985858;28;20493;-70
2021/06/14 02:59:07;;;;;;;4.37;3.63;;;;;;;16.39;67.34;96972.47;4984806;28;20465;-70
2021/06/14 03:01:33;;;;;;;4.03;3.63;;;;;;;16.41;67.14;96978.28;4986904;28;20472;-70
2021/06/14 03:04:02;;;;;;;4.03;3.73;;;;;;;16.37;67.32;96977.22;4986219;28;20487;-69
2021/06/14 03:06:28;;;;;;;4.50;4.10;;;;;;;16.35;67.77;96974.00;4986531;28;20448;-70
2021/06/14 03:08:54;;;;;;;4.37;3.97;;;;;;;16.35;67.45;96967.88;4986741;28;20428;-69
2021/06/14 03:11:24;;;;;;;4.07;3.30;;;;;;;16.37;67.52;96968.44;4986490;28;22481;-69
2021/06/14 03:13:50;;;;;;;5.37;3.60;;;;;;;16.34;67.52;96969.72;4986248;28;20895;-69
2021/06/14 03:16:19;;;;;;;4.40;4.10;;;;;;;16.35;68.22;96966.03;4989461;28;20432;-69
2021/06/14 03:18:46;;;;;;;4.20;3.80;;;;;;;16.36;67.83;96964.16;4985240;28;20455;-69
2021/06/14 03:21:12;;;;;;;3.93;3.63;;;;;;;16.31;68.53;96964.91;4974363;28;20838;-70
2021/06/14 03:23:37;;;;;;;4.30;3.90;;;;;;;16.24;68.57;96964.31;4994057;28;20491;-70
2021/06/14 03:26:08;;;;;;;3.93;3.63;;;;;;;16.30;68.04;96962.53;4985304;28;21671;-69
2021/06/14 03:28:35;;;;;;;6.30;3.70;;;;;;;16.26;68.50;96964.06;4990305;28;20192;-70
2021/06/14 03:31:02;;;;;;;4.03;3.70;;;;;;;16.30;67.95;96952.72;4985159;28;20479;-69
2021/06/14 03:33:28;;;;;;;4.00;3.63;;;;;;;16.28;68.40;96957.47;4986587;28;20484;-69
2021/06/14 03:35:54;;;;;;;4.13;3.83;;;;;;;16.25;68.64;96955.28;4985397;28;20432;-69
2021/06/14 03:38:20;;;;;;;4.40;4.07;;;;;;;16.24;68.78;96953.69;4984341;28;20499;-69
2021/06/14 03:40:46;;;;;;;4.43;3.80;;;;;;;16.27;69.03;96950.53;4984591;28;20995;-69
2021/06/14 03:43:11;;;;;;;3.77;3.47;;;;;;;16.25;69.12;96960.59;4983311;28;20216;-69
2021/06/14 03:45:37;;;;;;;4.70;4.30;;;;;;;16.17;69.52;96950.44;4984596;28;20708;-69
2021/06/14 03:48:03;;;;;;;4.60;4.10;;;;;;;16.17;69.46;96950.44;4988551;28;20235;-69
2021/06/14 03:50:29;;;;;;;6.07;3.70;;;;;;;16.26;69.51;96948.13;4983905;28;20596;-68
2021/06/14 03:52:55;;;;;;;4.53;3.60;;;;;;;16.29;69.40;96944.97;4983797;28;20531;-69
2021/06/14 03:55:21;;;;;;;5.80;4.03;;;;;;;16.33;69.46;96946.09;4983604;28;20239;-68
2021/06/14 03:57:46;;;;;;;4.20;3.80;;;;;;;16.27;70.05;96953.19;4987961;28;20189;-69
2021/06/14 04:00:14;;;;;;;4.53;4.23;;;;;;;16.30;70.15;96952.72;4984006;28;20899;-70
2021/06/14 04:02:41;;;;;;;4.83;4.03;;;;;;;16.36;69.93;96951.72;4987156;28;20217;-70
2021/06/14 04:05:08;;;;;;;3.90;3.53;;;;;;;16.39;70.08;96948.59;4986457;28;20452;-69
2021/06/14 04:07:33;;;;;;;4.17;3.77;;;;;;;16.39;70.21;96948.59;4986361;28;20535;-69
2021/06/14 04:10:02;;;;;;;4.90;3.90;;;;;;;16.37;70.63;96953.34;4987178;28;20523;-69
2021/06/14 04:12:28;;;;;;;5.20;3.90;;;;;;;16.45;70.51;96939.63;4986852;28;20185;-69
2021/06/14 04:14:54;;;;;;;5.53;4.20;;;;;;;16.51;70.40;96948.47;4982787;28;20969;-69
2021/06/14 04:17:19;;;;;;;4.40;3.73;;;;;;;16.54;70.62;96939.22;4984072;28;20428;-69
2021/06/14 04:19:45;;;;;;;5.50;3.97;;;;;;;16.60;70.59;96932.91;4987699;28;20212;-70
2021/06/14 04:22:10;;;;;;;5.73;3.97;;;;;;;16.59;70.87;96940.09;4993972;28;20181;-69
2021/06/14 04:24:35;;;;;;;5.10;3.50;;;;;;;16.59;70.94;96939.28;4987050;28;20201;-69
2021/06/14 04:27:01;;;;;;;5.03;4.50;;;;;;;16.60;71.27;96938.22;4986724;28;20691;-69
2021/06/14 04:29:27;;;;;;;3.70;3.40;;;;;;;16.63;71.19;96929.78;4983982;28;20184;-69
2021/06/14 04:31:52;;;;;;;6.60;4.63;;;;;;;16.65;71.32;96930.31;4986693;28;20911;-69
2021/06/14 04:34:17;;;;;;;8.07;4.50;;;;;;;16.66;71.92;96927.41;4983617;28;20215;-69
2021/06/14 04:36:43;;;;;;;4.57;4.17;;;;;;;16.73;71.90;96941.28;4994023;28;20189;-69
2021/06/14 04:39:09;;;;;;;4.40;4.00;;;;;;;16.80;71.86;96935.78;4993558;28;20290;-69
2021/06/14 04:41:35;;;;;;;5.60;4.93;;;;;;;16.87;71.74;96939.03;4982412;28;20201;-69
2021/06/14 04:44:00;;;;;;;5.00;4.60;;;;;;;16.91;71.19;96937.47;4986754;28;20205;-69
2021/06/14 04:46:25;;;;;;;4.87;4.47;;;;;;;16.92;71.15;96933.78;4982617;28;20440;-69
2021/06/14 04:48:51;;;;;;;6.30;4.47;;;;;;;17.02;70.96;96944.50;4986980;28;20197;-70
2021/06/14 04:51:16;;;;;;;6.50;4.70;;;;;;;17.11;71.00;96935.00;4983071;28;20304;-69
2021/06/14 04:53:43;;;;;;;5.13;4.63;;;;;;;17.18;70.61;96940.91;4982350;28;20256;-69
2021/06/14 04:56:08;;;;;;;5.23;4.30;;;;;;;17.25;69.82;96944.16;4987769;28;20189;-69
2021/06/14 04:58:34;;;;;;;4.53;3.97;;;;;;;17.28;67.06;96938.34;4987730;28;20445;-69
2021/06/14 05:01:01;;;;;;;4.90;4.20;;;;;;;17.35;67.42;96936.28;4986636;28;20209;-69
2021/06/14 05:03:27;;;;;;;6.50;4.53;;;;;;;17.43;67.87;96922.50;4987070;28;20466;-69
2021/06/14 05:05:52;;;;;;;6.90;5.27;;;;;;;17.51;68.16;96929.25;4987398;28;20459;-69
2021/06/14 05:08:18;;;;;;;5.07;4.27;;;;;;;17.54;68.03;96923.44;4982685;28;20194;-69
2021/06/14 05:10:47;;;;;;;4.70;4.30;;;;;;;17.58;66.67;96925.31;4984047;28;20180;-69
2021/06/14 05:13:13;;;;;;;5.63;4.40;;;;;;;17.66;67.11;96924.03;4985909;28;20507;-70
2021/06/14 05:15:39;;;;;;;4.60;4.00;;;;;;;17.71;67.11;96924.06;4986992;28;20435;-69
2021/06/14 05:18:05;;;;;;;4.30;3.90;;;;;;;17.81;66.27;96916.19;4987018;28;20188;-69
2021/06/14 05:20:30;;;;;;;4.87;3.73;;;;;;;17.77;65.71;96912.44;4990681;28;20208;-69
2021/06/14 05:22:57;;;;;;;6.13;4.30;;;;;;;17.83;66.28;96908.72;4990196;28;20710;-69
2021/06/14 05:25:22;;;;;;;5.10;4.07;;;;;;;17.94;66.93;96900.53;4972881;28;20239;-69
2021/06/14 05:27:48;;;;;;;4.10;3.80;;;;;;;17.96;65.47;96903.75;4986674;28;20428;-69
2021/06/14 05:30:14;;;;;;;5.57;4.47;;;;;;;18.02;65.14;96908.03;4986929;28;20252;-69
2021/06/14 05:32:39;;;;;;;6.63;4.70;;;;;;;18.03;65.87;96912.28;4992699;28;20212;-69
2021/06/14 05:35:07;;;;;;;7.03;3.93;;;;;;;18.01;64.04;96913.63;4990382;28;20527;-69
2021/06/14 05:37:33;;;;;;;8.77;4.10;;;;;;;18.13;63.89;96920.34;4989629;28;20186;-69
2021/06/14 05:39:58;;;;;;;7.93;4.30;;;;;;;18.21;63.81;96922.47;4990293;28;21020;-69
2021/06/14 05:42:24;;;;;;;8.10;4.80;;;;;;;18.29;63.99;96929.97;4985754;28;20181;-70
2021/06/14 05:44:49;;;;;;;5.33;4.77;;;;;;;18.36;64.80;96921.75;4990139;28;20201;-69
2021/06/14 05:47:14;;;;;;;5.10;4.60;;;;;;;18.32;64.52;96918.81;4986142;28;20251;-69
2021/06/14 05:49:40;;;;;;;4.57;4.17;;;;;;;18.29;63.95;96919.34;4986346;28;20268;-69
2021/06/14 05:52:06;;;;;;;4.17;3.77;;;;;;;18.41;64.51;96921.78;4992786;28;20244;-69
2021/06/14 05:54:31;;;;;;;4.30;4.00;;;;;;;18.48;64.60;96929.56;4994730;28;20710;-69
2021/06/14 05:56:56;;;;;;;4.07;3.67;;;;;;;18.59;64.67;96917.88;4986820;28;20272;-69
2021/06/14 05:59:22;;;;;;;3.93;3.63;;;;;;;18.61;65.04;96907.72;4990000;28;20213;-69
2021/06/14 06:01:47;;;;;;;5.07;3.70;;;;;;;18.63;64.58;96917.06;4986164;28;20217;-69
2021/06/14 06:04:14;;;;;;;5.33;4.17;;;;;;;18.73;64.55;96918.97;4986068;28;20209;-70
2021/06/14 06:06:39;;;;;;;6.77;3.70;;;;;;;18.77;64.18;96918.16;4986470;28;20200;-69
2021/06/14 06:09:05;;;;;;;4.43;4.03;;;;;;;18.72;63.94;96922.69;4985717;28;20440;-69
2021/06/14 06:11:31;;;;;;;4.70;4.20;;;;;;;18.75;64.18;96914.97;4987147;28;20190;-69
2021/06/14 06:13:57;;;;;;;4.23;3.63;;;;;;;18.79;63.66;96917.94;4995619;28;20703;-69
2021/06/14 06:16:22;;;;;;;7.37;3.80;;;;;;;18.83;63.78;96913.66;4994643;28;20468;-69
2021/06/14 06:18:47;;;;;;;4.67;4.17;;;;;;;18.87;64.25;96914.72;4989871;28;20541;-69
2021/06/14 06:21:13;;;;;;;3.83;3.53;;;;;;;18.92;64.21;96912.88;4986575;28;20205;-69
2021/06/14 06:23:38;;;;;;;4.30;3.90;;;;;;;18.94;63.54;96920.59;4984269;28;20214;-70
2021/06/14 06:26:04;;;;;;;4.07;3.70;;;;;;;19.00;63.89;96920.34;4989123;28;20256;-67
2021/06/14 06:28:29;;;;;;;5.53;4.13;;;;;;;19.09;64.04;96915.28;4988896;28;20185;-68
2021/06/14 06:30:55;;;;;;;5.87;4.77;;;;;;;19.15;63.15;96923.00;4988945;28;20174;-68
2021/06/14 06:33:20;;;;;;;7.97;4.10;;;;;;;19.18;63.21;96919.03;4985282;28;20229;-68
2021/06/14 06:35:45;;;;;;;5.40;3.83;;;;;;;19.20;62.55;96911.56;4985036;28;20661;-68
2021/06/14 06:38:11;;;;;;;3.50;3.20;;;;;;;19.20;61.54;96908.91;4989147;28;20186;-68
2021/06/14 06:40:36;;;;;;;5.23;4.23;;;;;;;19.32;61.61;96910.28;4985619;28;20248;-67
2021/06/14 06:43:02;;;;;;;4.83;4.10;;;;;;;19.36;62.58;96906.00;4984083;28;20259;-68
2021/06/14 06:45:27;;;;;;;4.53;3.93;;;;;;;19.29;60.81;96899.31;4987947;28;20643;-68
2021/06/14 06:47:53;;;;;;;3.77;3.47;;;;;;;19.35;59.89;96899.06;4987602;28;20208;-68
2021/06/14 06:50:19;;;;;;;4.53;3.57;;;;;;;19.44;60.32;96905.44;4986878;28;20187;-68
2021/06/14 06:52:45;;;;;;;4.20;3.60;;;;;;;19.51;60.46;96899.88;4984170;28;20193;-68
2021/06/14 06:55:13;;;;;;;3.97;3.57;;;;;;;19.48;59.93;96903.06;4988321;28;20824;-68
2021/06/14 06:57:40;;;;;;;3.50;2.70;;;;;;;19.59;60.51;96901.97;4986761;28;20185;-68
2021/06/14 07:00:20;;;;;;;4.43;3.83;;;;;;;19.62;59.51;96903.31;4969894;28;20464;-67
2021/06/14 07:02:45;;;;;;;6.43;3.80;;;;;;;19.71;57.76;96905.16;4983779;28;20443;-68
2021/06/14 07:05:11;;;;;;;3.80;3.47;;;;;;;19.82;56.95;96901.38;4988416;28;20440;-68
2021/06/14 07:07:37;;;;;;;3.80;3.40;;;;;;;19.85;56.66;96900.88;4985482;28;20181;-68
2021/06/14 07:10:05;;;;;;;4.50;3.67;;;;;;;19.94;58.22;96893.91;4985756;28;20425;-68
2021/06/14 07:12:36;;;;;;;4.37;3.47;;;;;;;20.00;57.78;96900.81;4989963;28;20263;-68
2021/06/14 07:15:04;;;;;;;5.60;3.23;;;;;;;20.02;56.79;96898.66;4973128;28;20460;-67
2021/06/14 07:17:29;;;;;;;3.77;3.43;;;;;;;19.98;56.52;96910.16;4984541;28;20432;-63
2021/06/14 07:19:55;;;;;;;3.70;3.40;;;;;;;19.97;55.30;96914.69;4985304;28;20487;-68
2021/06/14 07:22:20;;;;;;;4.30;3.43;;;;;;;20.05;55.01;96908.00;4984140;28;20193;-78
2021/06/14 07:24:45;;;;;;;3.53;3.23;;;;;;;20.18;56.09;96897.56;4991911;28;20194;-69
2021/06/14 07:27:11;;;;;;;3.60;3.30;;;;;;;20.11;58.46;96912.28;4964866;28;20643;-59
2021/06/14 07:29:36;;;;;;;7.10;3.67;;;;;;;20.09;53.64;96907.19;4975743;28;20174;-65
2021/06/14 07:32:02;;;;;;;5.53;3.60;;;;;;;20.25;52.86;96911.44;4998998;28;20235;-66
2021/06/14 07:34:28;;;;;;;4.70;3.23;;;;;;;20.30;52.02;96911.44;5013666;28;20200;-67
2021/06/14 07:36:54;;;;;;;6.77;3.30;;;;;;;20.41;52.78;96907.66;5014726;28;20207;-64
2021/06/14 07:39:19;;;;;;;4.57;3.30;;;;;;;20.53;53.85;96903.84;5014764;28;20180;-62
2021/06/14 07:41:45;;;;;;;4.20;3.33;;;;;;;20.62;54.66;96907.53;4996244;28;20463;-61
2021/06/14 07:44:10;;;;;;;3.40;3.10;;;;;;;20.68;53.63;96898.41;4983619;28;20210;-62
2021/06/14 07:46:36;;;;;;;3.67;3.37;;;;;;;20.79;54.38;96900.75;5009411;28;20189;-63
2021/06/14 07:49:02;;;;;;;3.77;3.47;;;;;;;20.93;54.44;96900.91;4994833;28;20264;-63
2021/06/14 07:51:27;;;;;;;5.63;3.00;;;;;;;20.91;52.14;96911.09;4994531;28;20215;-64
2021/06/14 07:53:53;;;;;;;5.40;3.60;;;;;;;20.98;53.48;96898.22;4994558;28;20193;-64
2021/06/14 07:56:27;;;;;;;5.00;3.47;;;;;;;21.18;54.43;96906.09;5131733;27;20296;-65
2021/06/14 07:58:52;;;;;;;7.40;3.87;;;;;;;21.28;55.58;96898.03;5131641;27;20425;-64
2021/06/14 08:01:18;;;;;;;4.00;3.20;;;;;;;21.32;53.37;96893.72;5131220;28;20168;-65
2021/06/14 08:03:46;;;;;;;4.97;2.90;;;;;;;21.38;52.59;96895.25;5131078;27;20199;-66
2021/06/14 08:06:11;;;;;;;4.23;3.30;;;;;;;21.49;53.88;96896.75;5131719;27;20165;-65
2021/06/14 08:08:37;;;;;;;5.33;3.43;;;;;;;21.54;51.63;96883.38;5131823;27;20455;-66
2021/06/14 08:11:03;;;;;;;6.20;3.47;;;;;;;21.64;52.36;96882.44;5131454;27;20177;-66
2021/06/14 08:13:28;;;;;;;3.93;3.30;;;;;;;21.75;51.98;96882.06;5131019;27;20212;-67
2021/06/14 08:15:54;;;;;;;5.47;3.83;;;;;;;21.85;52.59;96889.25;5131605;27;20704;-65
2021/06/14 08:21:19;;;;;;;4.17;3.27;;;;;;;22.05;51.50;96878.31;5131175;28;20479;-66
2021/06/14 08:26:30;;;;;;;2.90;2.70;;;;;;;22.15;50.45;96884.34;5131414;28;20401;-62
2021/06/14 08:28:57;;;;;;;4.70;3.30;;;;;;;22.26;50.08;96893.03;5131176;27;20410;-63
2021/06/14 08:31:25;;;;;;;3.73;3.10;;;;;;;22.29;49.73;96893.28;5128143;27;20410;-64
2021/06/14 08:33:51;;;;;;;3.70;2.43;;;;;;;22.35;47.51;96891.31;5110276;28;20431;-68
2021/06/14 08:36:16;;;;;;;3.73;3.30;;;;;;;22.48;48.65;96887.94;5129248;28;20445;-64
2021/06/14 08:38:41;;;;;;;3.70;3.23;;;;;;;22.58;47.93;96892.38;5126785;28;20187;-62
2021/06/14 08:41:07;;;;;;;4.93;3.00;;;;;;;22.66;47.10;96892.56;5127482;28;20794;-63
2021/06/14 08:43:33;;;;;;;4.60;3.07;;;;;;;22.74;48.61;96894.56;5126967;28;20199;-62
2021/06/14 08:45:59;;;;;;;8.47;3.10;;;;;;;22.67;47.30;96890.66;5126756;28;20193;-65
2021/06/14 08:48:25;;;;;;;4.43;3.10;;;;;;;22.79;46.73;96878.41;5127276;27;20642;-65
2021/06/14 08:50:50;;;;;;;3.27;2.57;;;;;;;22.86;45.62;96878.88;5126681;27;20211;-65
2021/06/14 08:53:16;;;;;;;3.33;2.70;;;;;;;22.80;43.28;96880.03;5126940;27;20462;-65
2021/06/14 08:55:42;;;;;;;3.60;2.70;;;;;;;23.03;44.79;96879.13;5126870;28;20200;-74
2021/06/14 08:58:07;;;;;;;4.70;2.73;;;;;;;23.19;46.20;96877.03;5127106;28;20193;-62
2021/06/14 09:00:34;;;;;;;3.53;2.67;;;;;;;23.27;45.93;96879.03;5127114;28;20256;-69
2021/06/14 09:03:00;;;;;;;6.10;3.00;;;;;;;23.40;46.32;96873.75;5113994;28;20567;-68
2021/06/14 09:05:27;;;;;;;3.37;3.07;;;;;;;23.51;45.44;96870.88;5114098;28;20888;-67
2021/06/14 09:07:55;;;;;;;3.90;2.80;;;;;;;23.58;44.52;96877.44;5112937;27;20915;-75
2021/06/14 09:10:23;;;;;;;3.77;2.70;;;;;;;23.68;45.76;96863.06;5113345;28;20411;-71
2021/06/14 09:12:49;;;;;;;5.93;4.00;;;;;;;23.68;45.67;96861.16;5112437;28;20443;-74
2021/06/14 09:15:15;;;;;;;4.23;3.57;;;;;;;23.80;46.27;96861.50;5113174;28;20486;-72
2021/06/14 09:17:51;;;;;;;2.97;2.30;;;;;;;23.92;45.03;96860.97;5114385;28;20265;-76
2021/06/14 09:20:17;;;;;;;4.37;2.90;;;;;;;24.07;44.63;96855.34;5108021;28;20189;-75
2021/06/14 09:22:43;;;;;;;3.83;3.23;;;;;;;24.13;47.69;96857.63;5095522;28;20908;-73
2021/06/14 09:25:11;;;;;;;3.00;2.80;;;;;;;24.29;44.75;96856.25;5095982;28;20672;-70
2021/06/14 09:27:41;;;;;;;3.73;2.67;;;;;;;24.39;43.26;96850.66;5096069;28;20192;-70
2021/06/14 09:30:26;;;;;;;4.57;2.80;;;;;;;24.43;45.18;96856.22;5095898;28;20396;-81
2021/06/14 09:32:58;;;;;;;3.33;2.90;;;;;;;24.43;44.71;96856.22;5112061;28;20913;-71
2021/06/14 09:35:31;;;;;;;3.10;2.80;;;;;;;24.52;43.56;96848.22;5114943;28;20462;-75
2021/06/14 09:38:03;;;;;;;2.57;2.37;;;;;;;24.55;43.83;96850.31;5116350;28;20453;-70
2021/06/14 09:40:31;;;;;;;3.00;2.80;;;;;;;24.54;44.58;96854.09;5105783;27;20412;-77
2021/06/14 09:42:57;;;;;;;3.73;2.80;;;;;;;24.65;43.26;96856.28;5093907;28;20408;-71
2021/06/14 09:45:23;;;;;;;5.30;3.03;;;;;;;24.78;45.93;96858.16;5095499;28;20422;-75
2021/06/14 09:47:52;;;;;;;5.00;3.10;;;;;;;24.84;44.29;96851.53;5095626;28;20177;-75
2021/06/14 09:50:24;;;;;;;4.40;2.60;;;;;;;24.99;42.97;96853.88;5095672;28;20412;-74
2021/06/14 09:53:13;;;;;;;10.80;3.00;;;;;;;25.14;41.18;96850.03;5111092;28;20480;-74
2021/06/14 09:55:39;;;;;;;3.60;2.70;;;;;;;25.27;41.91;96846.50;5115600;28;20582;-76
2021/06/14 09:58:11;;;;;;;4.77;2.70;;;;;;;25.31;42.67;96847.47;5115414;28;20416;-78
2021/06/14 10:00:45;;;;;;;2.83;2.43;;;;;;;25.29;40.83;96847.75;5115883;28;20723;-76
2021/06/14 10:03:11;;;;;;;2.97;2.67;;;;;;;25.30;40.71;96843.19;5115401;28;20419;-77
2021/06/14 10:05:43;;;;;;;4.03;2.80;;;;;;;25.36;38.47;96836.59;5115499;28;20732;-70
2021/06/14 10:08:09;;;;;;;3.03;2.73;;;;;;;25.56;41.43;96837.97;5114357;28;20180;-77
2021/06/14 10:10:40;;;;;;;4.70;3.80;;;;;;;25.54;38.90;96824.84;5111028;28;20416;-75
2021/06/14 10:13:06;;;;;;;2.27;2.03;;;;;;;25.56;41.05;96822.63;5110401;28;20204;-76
2021/06/14 10:15:36;;;;;;;3.00;2.60;;;;;;;25.38;37.30;96820.94;5095711;28;20822;-73
2021/06/14 10:18:03;;;;;;;2.73;2.53;;;;;;;25.61;39.24;96819.00;5093968;28;20698;-71
2021/06/14 10:20:30;;;;;;;4.57;3.03;;;;;;;25.78;41.10;96806.38;5094997;28;20499;-70
2021/06/14 10:22:59;;;;;;;3.73;2.87;;;;;;;25.79;42.92;96813.38;5094389;28;20458;-74
2021/06/14 10:25:26;;;;;;;4.07;2.67;;;;;;;25.93;38.20;96803.28;5094847;28;20409;-70
2021/06/14 10:27:52;;;;;;;5.20;3.07;;;;;;;26.11;39.35;96807.63;5094962;28;20411;-72
2021/06/14 10:30:22;;;;;;;2.73;2.53;;;;;;;26.16;41.75;96818.25;5114054;28;20556;-79
2021/06/14 10:32:48;;;;;;;3.10;2.33;;;;;;;26.27;40.64;96803.38;5099445;28;20509;-72
2021/06/14 10:35:15;;;;;;;2.80;2.27;;;;;;;26.28;38.11;96804.19;5094593;28;20941;-75
2021/06/14 10:37:45;;;;;;;4.20;2.47;;;;;;;26.38;37.18;96799.28;5094507;28;20407;-76
2021/06/14 10:40:14;;;;;;;3.17;2.67;;;;;;;26.56;40.68;96794.69;5094603;28;20488;-71
2021/06/14 10:42:41;;;;;;;2.70;2.43;;;;;;;26.73;37.57;96791.25;5093959;28;20407;-71
2021/06/14 10:45:08;;;;;;;3.37;2.77;;;;;;;26.86;38.33;96801.88;5094334;28;20915;-73
2021/06/14 10:47:34;;;;;;;3.17;2.60;;;;;;;26.92;37.18;96795.19;5109081;28;20908;-77
2021/06/14 10:50:01;;;;;;;4.10;2.30;;;;;;;27.11;37.02;96784.84;5115227;28;20411;-75
2021/06/14 10:52:46;;;;;;;2.93;2.47;;;;;;;27.08;37.14;96785.50;5114352;28;20414;-75
2021/06/14 10:55:15;;;;;;;5.87;3.03;;;;;;;27.16;35.34;96781.19;5114541;28;20507;-71
2021/06/14 10:57:43;;;;;;;5.60;2.40;;;;;;;27.19;35.65;96778.66;5114478;28;20410;-75
2021/06/14 11:00:32;;;;;;;3.80;2.23;;;;;;;27.29;37.70;96781.00;5113235;28;20800;-71
2021/06/14 11:03:03;;;;;;;2.33;2.10;;;;;;;27.26;37.79;96775.47;5096265;28;20423;-77
2021/06/14 11:05:36;;;;;;;2.97;2.27;;;;;;;27.38;36.98;96772.91;5094063;28;20868;-76
2021/06/14 11:08:18;;;;;;;5.60;2.37;;;;;;;27.34;34.83;96775.44;5093011;28;20481;-85
2021/06/14 11:10:48;;;;;;;3.43;2.43;;;;;;;27.46;34.19;96769.41;5094212;28;20464;-71
2021/06/14 11:13:15;;;;;;;3.70;2.30;;;;;;;27.52;35.03;96767.31;5093641;28;20428;-71
2021/06/14 11:15:43;;;;;;;3.23;2.13;;;;;;;27.54;33.53;96765.09;5095002;28;20967;-76
2021/06/14 11:18:26;;;;;;;3.63;2.10;;;;;;;27.60;34.78;96761.88;5108853;28;20510;-71
2021/06/14 11:20:54;;;;;;;3.37;2.00;;;;;;;27.63;32.47;96753.09;5094990;28;20419;-74
2021/06/14 11:23:27;;;;;;;2.63;2.43;;;;;;;27.77;34.93;96758.28;5093494;28;20426;-79
2021/06/14 11:25:53;;;;;;;2.27;2.10;;;;;;;27.87;34.81;96753.31;5094028;28;20842;-70
2021/06/14 11:28:33;;;;;;;2.23;2.03;;;;;;;27.94;36.44;96752.81;5093880;28;20426;-70
2021/06/14 11:30:59;;;;;;;2.40;2.20;;;;;;;27.99;34.89;96752.66;5096626;28;20419;-75
2021/06/14 11:33:27;;;;;;;3.50;2.47;;;;;;;28.04;32.88;96741.63;5113540;28;20423;-74
2021/06/14 11:35:54;;;;;;;4.33;2.13;;;;;;;27.96;35.94;96743.28;5114175;27;20447;-70
2021/06/14 11:38:22;;;;;;;2.40;2.10;;;;;;;28.10;34.60;96743.81;5113975;28;20415;-71
2021/06/14 11:40:54;;;;;;;4.50;2.83;;;;;;;28.14;37.00;96742.03;5113527;28;20817;-63